Terminal Aerodrome Forecast
Issued by NWS

Home | Current Version | Previous Version | Text Only | Print | Product List | Glossary On
Versions: 1 2 3 4 5 6 7 8 9 10 11 12 13 14 15 16
000
FTUS44 KEWX 261900 AAA
TAFSSF
TAF AMD
KSSF 261949Z 2620/2718 18010KT P6SM FEW027 SCT035
     FM270200 18004KT P6SM OVC015
     FM270700 VRB03KT 3SM BR OVC009
     FM270900 VRB03KT 1/2SM FG OVC005
     FM271500 01012KT P6SM OVC012=

USA.gov is the U.S. government's official web portal to all federal, state and local government web resources and services.